Time;durP1;ratioP1;P1;durP2;ratioP2;P2;SDS_P1;SDS_P2;PMS_P1;PMS_P2;Temp;Humidity;BMP_temperature;BMP_pressure;BME280_temperature;BME280_humidity;BME280_pressure;Samples;Min_cycle;Max_cycle;Signal;HPM_P1;HPM_P2
2022/10/26 00:00:47;;;;;;;7.27;2.40;;;;;;;11.54;100.00;96309.53;5033390;28;20035;-78
2022/10/26 00:03:13;;;;;;;4.70;1.40;;;;;;;11.61;100.00;96319.41;5050190;28;20032;-78
2022/10/26 00:05:39;;;;;;;5.20;1.93;;;;;;;11.66;100.00;96320.53;5031608;28;20416;-78
2022/10/26 00:08:05;;;;;;;6.10;1.80;;;;;;;11.65;100.00;96316.28;5027458;28;20025;-78
2022/10/26 00:10:33;;;;;;;4.87;1.50;;;;;;;11.67;100.00;96324.00;5029494;28;20033;-78
2022/10/26 00:12:59;;;;;;;6.97;1.80;;;;;;;11.66;100.00;96317.09;5015640;28;20083;-78
2022/10/26 00:15:25;;;;;;;3.20;1.37;;;;;;;11.59;100.00;96305.56;5031555;28;20455;-79
2022/10/26 00:17:50;;;;;;;5.80;2.00;;;;;;;11.48;100.00;96304.91;5027698;28;20063;-78
2022/10/26 00:20:16;;;;;;;3.43;1.63;;;;;;;11.47;100.00;96315.59;5027962;28;20124;-78
2022/10/26 00:22:42;;;;;;;3.57;1.60;;;;;;;11.46;100.00;96311.31;5029607;28;20095;-78
2022/10/26 00:25:08;;;;;;;10.13;2.40;;;;;;;11.39;100.00;96310.31;5028330;28;20026;-78
2022/10/26 00:27:33;;;;;;;4.30;1.60;;;;;;;11.41;100.00;96309.19;5015745;28;20042;-78
2022/10/26 00:30:08;;;;;;;5.53;1.67;;;;;;;11.47;100.00;96310.34;5010858;28;20064;-78
2022/10/26 00:32:34;;;;;;;8.57;2.07;;;;;;;11.45;100.00;96304.41;5029026;28;20112;-78
2022/10/26 00:35:00;;;;;;;4.10;1.60;;;;;;;11.50;100.00;96302.94;5027662;28;20183;-78
2022/10/26 00:37:26;;;;;;;4.00;1.60;;;;;;;11.59;100.00;96306.38;5027752;28;20037;-78
2022/10/26 00:39:51;;;;;;;4.90;1.40;;;;;;;11.71;100.00;96304.25;5029533;28;20029;-78
2022/10/26 00:42:19;;;;;;;5.50;1.37;;;;;;;11.74;100.00;96303.94;5029670;28;20115;-78
2022/10/26 00:44:48;;;;;;;5.37;1.83;;;;;;;11.79;100.00;96315.59;5028082;28;20041;-78
2022/10/26 00:47:15;;;;;;;7.17;1.50;;;;;;;11.84;100.00;96295.84;5029813;28;20037;-80
2022/10/26 00:49:45;;;;;;;8.53;1.60;;;;;;;11.88;100.00;96300.66;5030669;28;20128;-78
2022/10/26 00:52:12;;;;;;;9.97;1.93;;;;;;;11.91;100.00;96307.44;5029801;28;20065;-78
2022/10/26 00:54:38;;;;;;;4.87;1.40;;;;;;;11.92;100.00;96304.63;5008409;28;20029;-78
2022/10/26 00:57:07;;;;;;;6.70;1.70;;;;;;;11.94;100.00;96300.00;5007988;28;20017;-78
2022/10/26 00:59:33;;;;;;;8.13;1.57;;;;;;;11.92;100.00;96307.25;5007598;28;20653;-78
2022/10/26 01:01:59;;;;;;;7.70;2.50;;;;;;;11.90;100.00;96298.66;5027856;28;20091;-78
2022/10/26 01:04:24;;;;;;;7.17;2.07;;;;;;;11.93;100.00;96293.06;5027774;28;20041;-78
2022/10/26 01:06:51;;;;;;;10.50;2.23;;;;;;;11.95;100.00;96301.66;5028146;28;20033;-78
2022/10/26 01:09:19;;;;;;;7.20;1.80;;;;;;;11.91;100.00;96302.16;5027948;28;20066;-78
2022/10/26 01:11:45;;;;;;;7.40;1.80;;;;;;;11.95;100.00;96296.38;5008140;28;20022;-78
2022/10/26 01:14:14;;;;;;;8.27;2.47;;;;;;;12.00;100.00;96294.06;5008272;28;20514;-78
2022/10/26 01:16:55;;;;;;;4.90;1.57;;;;;;;12.02;100.00;96292.09;5041122;28;20125;-78
2022/10/26 01:19:56;;;;;;;6.70;1.93;;;;;;;11.99;100.00;96291.59;5010805;28;20038;-78
2022/10/26 01:22:52;;;;;;;6.70;1.50;;;;;;;11.99;100.00;96297.69;5008814;28;20041;-78
2022/10/26 01:25:43;;;;;;;5.37;1.50;;;;;;;11.96;100.00;96287.47;5014002;28;20036;-78
2022/10/26 01:28:30;;;;;;;6.10;1.50;;;;;;;12.01;100.00;96277.25;5023765;28;20070;-78
2022/10/26 01:30:59;;;;;;;5.53;1.60;;;;;;;12.06;100.00;96279.38;5024862;28;20033;-78
2022/10/26 01:33:49;;;;;;;4.67;1.53;;;;;;;12.08;100.00;96279.25;5027523;28;20782;-78
2022/10/26 01:36:33;;;;;;;3.53;1.10;;;;;;;12.10;100.00;96282.50;5024819;28;20033;-78
2022/10/26 01:39:16;;;;;;;5.67;1.33;;;;;;;12.03;100.00;96272.63;5021521;28;20037;-78
2022/10/26 01:41:48;;;;;;;5.80;1.80;;;;;;;12.08;100.00;96274.78;5031328;28;20041;-78
2022/10/26 01:44:28;;;;;;;5.07;1.70;;;;;;;12.06;100.00;96281.22;5045074;28;20367;-77
2022/10/26 01:46:56;;;;;;;5.47;1.43;;;;;;;12.04;100.00;96284.03;5032432;28;20053;-78
2022/10/26 01:49:27;;;;;;;4.53;1.47;;;;;;;12.07;100.00;96285.47;5030679;28;20021;-78
2022/10/26 01:51:52;;;;;;;4.90;1.33;;;;;;;12.07;100.00;96288.13;5014481;28;20041;-78
2022/10/26 01:54:18;;;;;;;4.00;1.60;;;;;;;12.02;100.00;96288.63;5031032;28;20028;-78
2022/10/26 01:56:50;;;;;;;6.20;1.63;;;;;;;11.97;100.00;96288.28;5021846;28;20037;-78
2022/10/26 01:59:57;;;;;;;7.47;1.57;;;;;;;11.98;100.00;96280.22;5029949;28;20033;-78
2022/10/26 02:02:53;;;;;;;5.97;2.10;;;;;;;11.94;100.00;96281.56;5041113;28;21068;-78
2022/10/26 02:05:31;;;;;;;5.47;1.47;;;;;;;11.86;100.00;96271.00;5036569;28;20030;-78
2022/10/26 02:08:03;;;;;;;5.30;1.90;;;;;;;11.88;100.00;96274.31;5030566;28;20037;-78
2022/10/26 02:10:56;;;;;;;3.45;1.15;;;;;;;11.82;100.00;96269.66;5032373;28;20033;-78
2022/10/26 02:13:31;;;;;;;5.23;1.50;;;;;;;11.85;100.00;96277.28;5033415;28;20116;-78
2022/10/26 02:16:30;;;;;;;5.97;1.60;;;;;;;11.86;100.00;96270.19;5031986;28;20034;-78
2022/10/26 02:19:21;;;;;;;8.80;3.17;;;;;;;11.86;100.00;96271.00;5031335;28;20076;-78
2022/10/26 02:21:53;;;;;;;7.70;2.00;;;;;;;11.84;100.00;96262.47;5032094;28;20037;-78
2022/10/26 02:24:21;;;;;;;7.47;1.85;;;;;;;11.83;100.00;96266.03;5024868;28;20029;-78
2022/10/26 02:26:49;;;;;;;3.33;1.43;;;;;;;11.83;100.00;96255.50;5027516;28;20042;-78
2022/10/26 02:29:18;;;;;;;4.60;1.50;;;;;;;11.81;100.00;96260.13;5032563;28;20108;-78
2022/10/26 02:31:47;;;;;;;5.13;1.80;;;;;;;11.80;100.00;96261.09;5031606;28;20033;-78
2022/10/26 02:34:17;;;;;;;5.20;1.33;;;;;;;11.86;100.00;96263.09;5031041;28;20029;-78
2022/10/26 02:36:46;;;;;;;5.33;2.10;;;;;;;11.87;100.00;96263.94;5032182;28;20561;-79
2022/10/26 02:39:15;;;;;;;8.17;1.90;;;;;;;11.82;100.00;96267.03;5031518;28;20037;-78
2022/10/26 02:41:43;;;;;;;9.60;1.80;;;;;;;11.83;100.00;96271.31;5033345;28;20037;-78
2022/10/26 02:44:24;;;;;;;6.13;1.70;;;;;;;11.88;100.00;96269.03;5031706;28;20308;-79
2022/10/26 02:46:51;;;;;;;5.90;2.17;;;;;;;11.92;100.00;96267.72;5026847;28;20029;-78
2022/10/26 02:49:18;;;;;;;5.37;1.50;;;;;;;11.91;100.00;96255.53;5031594;28;20065;-78
2022/10/26 02:51:59;;;;;;;5.50;1.80;;;;;;;11.85;100.00;96250.94;5031703;28;20037;-78
2022/10/26 02:55:09;;;;;;;6.83;2.50;;;;;;;11.78;100.00;96239.38;5023007;28;20045;-78
2022/10/26 02:57:40;;;;;;;4.93;1.93;;;;;;;11.71;100.00;96254.22;5027759;28;20070;-78
2022/10/26 03:00:08;;;;;;;5.70;1.60;;;;;;;11.80;100.00;96253.19;5019781;28;20109;-78
2022/10/26 03:02:33;;;;;;;5.47;1.50;;;;;;;11.80;100.00;96248.78;5031642;28;20483;-78
2022/10/26 03:05:17;;;;;;;5.97;1.50;;;;;;;11.86;100.00;96244.66;5029985;28;20038;-78
2022/10/26 03:07:43;;;;;;;8.27;2.33;;;;;;;11.84;100.00;96262.47;5029222;28;20033;-78
2022/10/26 03:10:09;;;;;;;4.73;2.27;;;;;;;11.84;100.00;96264.22;5030116;28;20029;-78
2022/10/26 03:12:36;;;;;;;7.57;1.70;;;;;;;11.85;100.00;96269.38;5030995;28;20029;-78
2022/10/26 03:15:03;;;;;;;3.60;1.80;;;;;;;11.86;100.00;96273.66;5013189;28;20033;-78
2022/10/26 03:17:29;;;;;;;6.50;1.70;;;;;;;11.73;100.00;96281.19;5029070;28;20037;-78
2022/10/26 03:19:55;;;;;;;4.50;1.67;;;;;;;11.73;100.00;96287.28;5030880;28;20368;-78
2022/10/26 03:22:21;;;;;;;7.33;2.30;;;;;;;11.69;100.00;96293.88;5030744;28;20398;-78
2022/10/26 03:24:47;;;;;;;9.73;2.37;;;;;;;11.67;100.00;96297.66;5029672;28;20483;-78
2022/10/26 03:27:13;;;;;;;4.33;2.00;;;;;;;11.68;100.00;96301.97;5012328;28;20123;-78
2022/10/26 03:29:45;;;;;;;7.23;3.10;;;;;;;11.67;100.00;96302.91;5028429;28;20517;-79
2022/10/26 03:32:11;;;;;;;5.40;2.27;;;;;;;11.66;100.00;96307.38;5029372;28;20572;-79
2022/10/26 03:34:36;;;;;;;8.67;3.13;;;;;;;11.67;100.00;96301.13;5029148;28;20037;-76
2022/10/26 03:37:02;;;;;;;8.07;1.93;;;;;;;11.62;100.00;96299.97;5028896;28;20045;-76
2022/10/26 03:39:28;;;;;;;7.47;2.50;;;;;;;11.62;100.00;96299.97;5030201;28;20038;-77
2022/10/26 03:41:54;;;;;;;7.43;2.30;;;;;;;11.53;100.00;96301.75;5029668;28;20068;-76
2022/10/26 03:44:27;;;;;;;8.37;2.07;;;;;;;11.61;100.00;96303.59;5029898;28;20670;-76
2022/10/26 03:46:53;;;;;;;4.88;2.13;;;;;;;11.50;100.00;96307.34;5028820;28;20390;-77
2022/10/26 03:49:18;;;;;;;6.33;2.37;;;;;;;11.46;100.00;96311.31;5029715;28;20037;-77
2022/10/26 03:51:45;;;;;;;6.77;2.37;;;;;;;11.44;100.00;96315.94;5025590;28;20033;-77
2022/10/26 03:54:11;;;;;;;6.80;2.40;;;;;;;11.39;100.00;96321.66;5023612;28;20036;-77
2022/10/26 03:56:36;;;;;;;14.93;2.30;;;;;;;11.34;100.00;96321.34;5028804;28;20037;-77
2022/10/26 03:59:02;;;;;;;9.30;2.40;;;;;;;11.32;100.00;96326.75;5029365;28;20026;-77
2022/10/26 04:01:27;;;;;;;7.07;2.73;;;;;;;11.35;100.00;96328.25;5028978;28;20037;-77
2022/10/26 04:03:53;;;;;;;5.13;2.30;;;;;;;11.28;100.00;96327.25;5029372;28;20044;-77
2022/10/26 04:06:19;;;;;;;10.17;3.80;;;;;;;11.20;100.00;96321.94;5027522;28;20132;-77
2022/10/26 04:08:44;;;;;;;9.03;3.10;;;;;;;11.22;100.00;96330.53;5010203;28;20088;-78
2022/10/26 04:11:10;;;;;;;9.77;3.70;;;;;;;11.21;100.00;96327.06;5027706;28;20060;-77
2022/10/26 04:13:36;;;;;;;9.00;4.07;;;;;;;11.26;100.00;96334.47;5027767;28;20467;-78
2022/10/26 04:16:01;;;;;;;11.67;4.57;;;;;;;11.24;100.00;96326.75;5018322;28;20041;-77
2022/10/26 04:18:27;;;;;;;8.50;3.97;;;;;;;11.27;100.00;96336.16;5007927;28;20132;-77
2022/10/26 04:20:53;;;;;;;7.90;2.93;;;;;;;11.28;100.00;96330.69;5018359;28;20048;-77
2022/10/26 04:23:19;;;;;;;8.13;3.87;;;;;;;11.30;100.00;96333.16;5028370;28;20048;-76
2022/10/26 04:25:45;;;;;;;7.00;3.20;;;;;;;11.35;100.00;96341.41;5028014;28;20037;-76
2022/10/26 04:28:12;;;;;;;9.50;4.80;;;;;;;11.40;100.00;96338.28;5030215;28;20052;-77
2022/10/26 04:30:38;;;;;;;9.80;4.50;;;;;;;11.45;100.00;96336.81;5032030;28;20030;-76
2022/10/26 04:33:05;;;;;;;7.27;3.97;;;;;;;11.46;100.00;96335.81;5030487;28;20035;-76
2022/10/26 04:35:30;;;;;;;10.27;3.60;;;;;;;11.47;100.00;96355.94;5014015;28;20116;-77
2022/10/26 04:38:01;;;;;;;5.87;2.20;;;;;;;11.54;100.00;96351.66;5031774;28;20505;-76
2022/10/26 04:40:31;;;;;;;9.60;2.13;;;;;;;11.63;100.00;96349.03;5031412;28;20034;-76
2022/10/26 04:42:58;;;;;;;7.17;1.97;;;;;;;11.79;100.00;96330.59;5020188;28;20037;-77
2022/10/26 04:45:24;;;;;;;11.33;2.07;;;;;;;11.87;100.00;96330.66;5026418;28;20083;-77
2022/10/26 04:47:58;;;;;;;8.50;2.03;;;;;;;11.91;100.00;96331.16;5020420;28;20463;-77
2022/10/26 04:50:24;;;;;;;6.20;1.93;;;;;;;12.01;100.00;96311.53;5026560;28;20126;-77
2022/10/26 04:52:50;;;;;;;8.60;3.33;;;;;;;12.11;100.00;96305.28;5027765;28;20084;-76
2022/10/26 04:55:16;;;;;;;6.03;2.00;;;;;;;12.24;100.00;96295.03;5004678;28;20051;-77
2022/10/26 04:57:43;;;;;;;6.00;2.40;;;;;;;12.30;100.00;96296.16;5009079;28;20434;-77
2022/10/26 05:00:10;;;;;;;9.40;4.23;;;;;;;12.30;100.00;96296.97;5027322;28;20037;-77
2022/10/26 05:02:35;;;;;;;10.07;3.80;;;;;;;12.39;100.00;96287.22;5024487;28;20079;-76
2022/10/26 05:05:01;;;;;;;8.30;3.07;;;;;;;12.33;100.00;96283.44;5027106;28;20057;-77
2022/10/26 05:07:27;;;;;;;8.20;3.57;;;;;;;12.24;100.00;96282.66;5035057;28;20045;-77
2022/10/26 05:09:53;;;;;;;6.03;2.90;;;;;;;12.21;100.00;96279.53;5026820;28;20037;-77
2022/10/26 05:12:18;;;;;;;8.80;2.80;;;;;;;12.16;100.00;96279.22;5026162;28;20040;-76
2022/10/26 05:14:44;;;;;;;6.27;2.27;;;;;;;12.14;100.00;96268.00;5025583;28;20056;-77
2022/10/26 05:17:10;;;;;;;6.20;2.73;;;;;;;12.11;100.00;96276.28;5023139;28;20758;-77
2022/10/26 05:19:35;;;;;;;4.50;2.20;;;;;;;12.07;100.00;96273.13;5025097;28;20033;-77
2022/10/26 05:22:01;;;;;;;7.43;2.60;;;;;;;12.10;100.00;96267.50;5025937;28;20040;-77
2022/10/26 05:24:27;;;;;;;7.30;2.53;;;;;;;12.12;100.00;96280.53;5031781;28;20035;-77
2022/10/26 05:26:53;;;;;;;11.27;3.90;;;;;;;12.23;100.00;96294.19;5026144;28;20052;-77
2022/10/26 05:29:18;;;;;;;5.03;2.30;;;;;;;12.27;100.00;96295.50;5007772;28;20072;-77
2022/10/26 05:31:44;;;;;;;6.87;1.83;;;;;;;12.30;100.00;96288.25;5024109;28;20110;-76
2022/10/26 05:34:09;;;;;;;6.23;2.00;;;;;;;12.37;100.00;96290.03;5025853;28;20068;-77
2022/10/26 05:36:35;;;;;;;5.87;1.50;;;;;;;12.55;100.00;96296.94;5027221;28;20104;-77
2022/10/26 05:39:01;;;;;;;5.80;1.83;;;;;;;12.54;100.00;96298.75;5025444;28;20021;-76
2022/10/26 05:41:26;;;;;;;5.53;2.00;;;;;;;12.53;100.00;96299.72;5009479;28;20041;-77
2022/10/26 05:43:52;;;;;;;6.83;1.90;;;;;;;12.49;100.00;96320.34;5027470;28;20084;-77
2022/10/26 05:46:18;;;;;;;8.40;2.07;;;;;;;12.31;100.00;96316.25;5022310;28;20032;-76
2022/10/26 05:48:43;;;;;;;5.07;2.00;;;;;;;12.25;100.00;96329.13;5024053;28;20049;-76
2022/10/26 05:51:11;;;;;;;9.00;2.00;;;;;;;12.19;100.00;96339.50;5027183;28;20037;-76
2022/10/26 05:53:37;;;;;;;6.00;2.23;;;;;;;12.09;100.00;96342.31;5026244;28;20037;-77
2022/10/26 05:56:18;;;;;;;7.30;2.20;;;;;;;12.04;100.00;96344.66;5025479;28;20045;-76
2022/10/26 05:58:45;;;;;;;10.37;2.63;;;;;;;12.06;100.00;96345.28;5025507;28;20037;-76
2022/10/26 06:01:31;;;;;;;5.37;1.77;;;;;;;12.00;100.00;96352.06;5025587;28;20030;-76
2022/10/26 06:04:25;;;;;;;6.20;2.33;;;;;;;12.01;100.00;96348.44;5026022;28;20037;-76
2022/10/26 06:06:53;;;;;;;6.75;1.83;;;;;;;12.01;100.00;96347.63;5025634;28;20323;-77
2022/10/26 06:09:19;;;;;;;5.13;2.27;;;;;;;12.08;100.00;96353.03;5025918;28;20090;-76
2022/10/26 06:11:46;;;;;;;6.03;2.97;;;;;;;12.08;100.00;96353.03;5029504;28;20034;-76
2022/10/26 06:14:12;;;;;;;9.77;2.70;;;;;;;11.96;100.00;96360.44;5012165;28;20025;-76
2022/10/26 06:17:03;;;;;;;8.40;3.20;;;;;;;11.86;100.00;96363.25;5030764;28;20087;-76
2022/10/26 06:19:39;;;;;;;8.00;2.80;;;;;;;11.93;100.00;96358.94;5028345;28;20041;-76
2022/10/26 06:22:22;;;;;;;7.50;2.90;;;;;;;11.90;100.00;96372.47;5028666;28;20029;-76
2022/10/26 06:24:47;;;;;;;7.10;2.90;;;;;;;11.82;100.00;96364.53;5028873;28;20120;-76
2022/10/26 06:27:50;;;;;;;10.90;3.33;;;;;;;11.89;100.00;96365.56;5029957;28;20163;-76
2022/10/26 06:30:16;;;;;;;10.53;3.77;;;;;;;11.93;100.00;96366.03;5028693;28;20068;-76
2022/10/26 06:32:45;;;;;;;11.80;3.80;;;;;;;12.02;100.00;96365.88;5029911;28;20037;-77
2022/10/26 06:35:19;;;;;;;8.33;2.83;;;;;;;12.05;100.00;96364.72;5021435;28;20032;-76
2022/10/26 06:37:45;;;;;;;8.90;3.00;;;;;;;12.07;100.00;96368.00;5029143;28;20033;-76
2022/10/26 06:40:14;;;;;;;6.67;2.13;;;;;;;12.09;100.00;96376.59;5028544;28;20025;-76
2022/10/26 06:42:42;;;;;;;5.77;2.53;;;;;;;12.11;100.00;96381.72;5030061;28;20052;-76
2022/10/26 06:45:15;;;;;;;6.60;2.50;;;;;;;12.17;100.00;96376.59;5029270;28;20091;-76
2022/10/26 06:47:46;;;;;;;4.80;2.10;;;;;;;12.16;100.00;96384.66;5024975;28;20037;-77
2022/10/26 06:50:29;;;;;;;6.60;2.03;;;;;;;12.20;100.00;96391.25;5029723;28;20025;-76
2022/10/26 06:53:04;;;;;;;6.07;2.05;;;;;;;12.23;100.00;96406.75;5028773;28;20033;-76
2022/10/26 06:55:39;;;;;;;7.47;2.00;;;;;;;12.29;100.00;96395.53;5027868;28;20039;-76
2022/10/26 06:58:10;;;;;;;6.20;2.13;;;;;;;12.30;100.00;96405.09;5028957;28;20033;-75
2022/10/26 07:00:38;;;;;;;6.40;2.30;;;;;;;12.35;100.00;96402.78;5027908;28;20045;-76
2022/10/26 07:03:03;;;;;;;8.60;3.07;;;;;;;12.41;100.00;96401.31;5028328;28;20041;-76
2022/10/26 07:05:29;;;;;;;12.27;2.90;;;;;;;12.37;100.00;96407.88;5024163;28;20073;-76
2022/10/26 07:07:55;;;;;;;10.87;2.20;;;;;;;12.35;100.00;96418.63;5024099;28;20033;-76
2022/10/26 07:10:20;;;;;;;8.83;2.40;;;;;;;12.33;100.00;96417.94;5029679;28;20022;-76
2022/10/26 07:12:46;;;;;;;7.70;2.20;;;;;;;12.35;100.00;96418.63;5029132;28;20029;-76
2022/10/26 07:15:12;;;;;;;9.60;2.80;;;;;;;12.37;100.00;96424.53;5027706;28;20029;-76
2022/10/26 07:17:47;;;;;;;5.97;2.37;;;;;;;12.47;100.00;96430.47;5027475;28;20854;-77
2022/10/26 07:20:14;;;;;;;5.80;1.97;;;;;;;12.54;100.00;96437.72;5026722;28;20056;-76
2022/10/26 07:22:41;;;;;;;9.80;2.23;;;;;;;12.60;100.00;96434.41;5026916;28;20034;-76
2022/10/26 07:25:08;;;;;;;6.60;2.00;;;;;;;12.58;100.00;96445.16;5027196;28;20538;-76
2022/10/26 07:27:34;;;;;;;6.23;2.00;;;;;;;12.64;100.00;96456.81;5024195;28;20116;-76
2022/10/26 07:30:00;;;;;;;5.47;2.20;;;;;;;12.64;100.00;96459.47;5028483;28;20083;-76
2022/10/26 07:32:26;;;;;;;3.97;1.67;;;;;;;12.63;100.00;96460.47;5028415;28;20044;-76
2022/10/26 07:34:51;;;;;;;9.73;3.13;;;;;;;12.61;100.00;96467.72;5036793;28;20029;-77
2022/10/26 07:37:17;;;;;;;5.13;1.93;;;;;;;12.62;100.00;96472.00;5030013;28;20037;-76
2022/10/26 07:39:44;;;;;;;9.10;2.47;;;;;;;12.61;100.00;96470.34;5028617;28;20056;-75
2022/10/26 07:42:09;;;;;;;4.70;1.90;;;;;;;12.66;100.00;96470.69;5029176;28;20025;-77
2022/10/26 07:44:35;;;;;;;5.03;1.87;;;;;;;12.69;100.00;96471.19;5026610;28;20037;-76
2022/10/26 07:47:00;;;;;;;8.90;3.00;;;;;;;12.67;100.00;96482.88;5028827;28;20034;-76
2022/10/26 07:49:26;;;;;;;6.73;3.17;;;;;;;12.71;100.00;96478.94;5026202;28;20659;-76
2022/10/26 07:51:52;;;;;;;6.77;2.80;;;;;;;12.80;100.00;96480.56;5027098;28;20034;-76
2022/10/26 07:54:17;;;;;;;8.50;2.70;;;;;;;12.82;100.00;96491.78;5027695;28;20052;-76
2022/10/26 07:56:43;;;;;;;7.37;2.83;;;;;;;12.89;100.00;96492.75;5028364;28;20029;-77
2022/10/26 07:59:11;;;;;;;5.97;2.07;;;;;;;12.95;100.00;96494.75;5025123;28;20547;-76
2022/10/26 08:01:37;;;;;;;6.87;2.27;;;;;;;12.99;100.00;96489.94;5028452;28;20505;-76
2022/10/26 08:04:02;;;;;;;7.03;2.83;;;;;;;12.98;100.00;96485.66;5027138;28;20029;-76
2022/10/26 08:06:28;;;;;;;7.17;2.77;;;;;;;12.98;100.00;96483.84;5026934;28;20045;-76
2022/10/26 08:08:53;;;;;;;11.13;3.00;;;;;;;12.97;100.00;96484.00;5022056;28;20029;-76
2022/10/26 08:11:19;;;;;;;11.43;3.80;;;;;;;12.99;100.00;96482.03;5026015;28;20036;-76
2022/10/26 08:13:45;;;;;;;9.33;2.50;;;;;;;13.04;100.00;96486.78;5025988;28;20040;-76
2022/10/26 08:16:11;;;;;;;9.53;2.40;;;;;;;13.05;100.00;96486.63;5008158;28;20029;-76
2022/10/26 08:18:37;;;;;;;6.93;2.50;;;;;;;13.10;100.00;96486.94;5027217;28;20491;-76
2022/10/26 08:21:08;;;;;;;6.90;3.17;;;;;;;13.17;100.00;96497.66;5027665;28;20036;-76
2022/10/26 08:23:34;;;;;;;9.20;2.73;;;;;;;13.23;100.00;96496.97;5027931;28;20033;-76
2022/10/26 08:26:01;;;;;;;6.37;2.23;;;;;;;13.28;100.00;96491.22;5026446;28;20037;-76
2022/10/26 08:28:28;;;;;;;7.47;2.33;;;;;;;13.28;100.00;96492.06;5027812;28;20098;-76
2022/10/26 08:30:54;;;;;;;7.37;2.00;;;;;;;13.31;100.00;96493.50;5026354;28;20447;-76
2022/10/26 08:33:20;;;;;;;6.07;2.60;;;;;;;13.40;100.00;96492.50;5026981;28;20033;-77
2022/10/26 08:35:45;;;;;;;7.50;2.57;;;;;;;13.45;100.00;96495.47;5027681;28;20048;-77
2022/10/26 08:38:11;;;;;;;4.50;2.17;;;;;;;13.55;100.00;96501.38;5019062;28;20415;-76
2022/10/26 08:40:40;;;;;;;12.10;2.60;;;;;;;13.64;100.00;96496.88;5027402;28;20053;-76
2022/10/26 08:43:21;;;;;;;8.67;2.60;;;;;;;13.72;100.00;96499.50;5020971;28;20033;-76
2022/10/26 08:45:52;;;;;;;4.35;2.03;;;;;;;13.81;100.00;96501.06;5025305;28;20037;-76
2022/10/26 08:48:27;;;;;;;6.63;2.10;;;;;;;13.81;100.00;96506.38;5025789;28;20091;-76
2022/10/26 08:51:00;;;;;;;6.90;2.05;;;;;;;13.91;100.00;96504.31;5027532;28;20041;-76
2022/10/26 08:53:36;;;;;;;7.30;2.03;;;;;;;14.28;100.00;96496.69;5026275;28;20414;-76
2022/10/26 08:56:31;;;;;;;6.28;2.22;;;;;;;14.60;100.00;96500.94;5024751;28;20561;-76
2022/10/26 08:59:35;;;;;;;8.20;2.40;;;;;;;15.54;100.00;96494.22;5026750;28;20041;-77
2022/10/26 09:02:01;;;;;;;6.75;2.60;;;;;;;15.26;100.00;96499.34;5020972;28;20148;-76
2022/10/26 09:04:30;;;;;;;4.57;1.80;;;;;;;15.13;100.00;96495.69;5034437;28;20502;-76
2022/10/26 09:07:06;;;;;;;5.45;2.03;;;;;;;15.28;100.00;96497.31;5026113;28;20046;-76
2022/10/26 09:09:54;;;;;;;4.68;2.08;;;;;;;15.31;100.00;96483.72;5008998;28;20038;-76
2022/10/26 09:12:43;;;;;;;8.05;2.30;;;;;;;15.25;100.00;96491.56;5021345;28;20107;-77
2022/10/26 09:15:52;;;;;;;7.78;2.40;;;;;;;15.12;100.00;96502.78;5017958;28;20132;-77
2022/10/26 09:18:41;;;;;;;6.97;2.30;;;;;;;15.11;100.00;96505.63;5025158;28;20039;-76
2022/10/26 09:21:34;;;;;;;6.05;2.58;;;;;;;15.05;100.00;96500.03;5019483;28;20050;-77
2022/10/26 09:24:20;;;;;;;7.90;2.55;;;;;;;15.12;100.00;96505.44;5024471;28;20407;-77
2022/10/26 09:27:00;;;;;;;6.82;2.60;;;;;;;15.15;100.00;96507.72;5026306;28;20034;-76
2022/10/26 09:29:37;;;;;;;5.97;2.30;;;;;;;15.21;100.00;96504.34;5025376;28;20034;-76
2022/10/26 09:32:05;;;;;;;5.55;2.35;;;;;;;15.28;100.00;96504.44;5026864;28;20029;-77
2022/10/26 09:34:40;;;;;;;7.03;2.65;;;;;;;15.36;100.00;96506.19;5025654;28;20063;-76
2022/10/26 09:37:18;;;;;;;7.20;2.53;;;;;;;15.45;100.00;96499.78;5027226;28;20560;-76
2022/10/26 09:40:07;;;;;;;8.85;3.83;;;;;;;15.46;100.00;96509.38;5024860;28;20090;-77
2022/10/26 09:43:03;;;;;;;8.13;3.15;;;;;;;15.48;100.00;96510.84;5022810;28;20125;-77
2022/10/26 09:45:37;;;;;;;9.25;2.97;;;;;;;15.61;100.00;96520.00;5025828;28;20114;-76
2022/10/26 09:48:19;;;;;;;8.18;2.80;;;;;;;15.75;100.00;96525.31;5022686;28;20053;-76
2022/10/26 09:50:48;;;;;;;9.02;2.40;;;;;;;15.73;100.00;96522.03;5031093;28;20034;-76
2022/10/26 09:53:14;;;;;;;8.38;2.35;;;;;;;15.71;100.00;96534.66;5012196;28;20660;-77
2022/10/26 09:55:45;;;;;;;12.88;3.20;;;;;;;15.74;100.00;96541.41;5027190;28;20037;-76
2022/10/26 09:58:29;;;;;;;5.70;2.08;;;;;;;15.70;100.00;96545.44;5036294;28;20025;-76
2022/10/26 10:00:55;;;;;;;9.27;2.40;;;;;;;15.70;100.00;96554.22;5029072;28;20048;-77
2022/10/26 10:03:26;;;;;;;9.20;2.50;;;;;;;15.74;100.00;96558.16;5030646;28;20029;-77
2022/10/26 10:05:52;;;;;;;8.18;2.22;;;;;;;15.88;100.00;96553.84;5030388;28;20068;-77
2022/10/26 10:08:21;;;;;;;10.40;2.30;;;;;;;15.91;100.00;96553.47;5028227;28;20029;-77
2022/10/26 10:10:54;;;;;;;6.35;2.83;;;;;;;15.99;100.00;96553.34;5030499;28;20041;-77
2022/10/26 10:13:20;;;;;;;;;;;;;;;16.18;100.00;96549.31;5029795;28;20029;-77
2022/10/26 10:16:09;;;;;;;5.28;2.50;;;;;;;16.25;100.00;96558.16;5029080;28;20390;-77
2022/10/26 10:18:37;;;;;;;5.75;2.05;;;;;;;16.35;100.00;96552.56;5029751;28;20029;-78
2022/10/26 10:21:04;;;;;;;4.72;1.95;;;;;;;16.29;100.00;96558.59;5030142;28;20064;-77
2022/10/26 10:23:48;;;;;;;6.30;2.10;;;;;;;16.53;100.00;96557.44;5029979;28;20511;-77
2022/10/26 10:26:13;;;;;;;;;;;;;;;16.59;100.00;96561.19;5014457;28;20036;-77
2022/10/26 10:28:41;;;;;;;7.68;1.90;;;;;;;16.62;100.00;96556.31;5028644;28;19917;-77
2022/10/26 10:31:22;;;;;;;8.00;2.03;;;;;;;16.70;100.00;96564.16;5028343;28;20087;-78
2022/10/26 10:33:51;;;;;;;11.73;3.17;;;;;;;17.11;100.00;96555.56;5030267;28;20505;-77
2022/10/26 10:36:20;;;;;;;6.10;1.80;;;;;;;17.06;100.00;96551.84;5026203;28;20025;-77
2022/10/26 10:38:48;;;;;;;7.70;2.30;;;;;;;17.16;100.00;96553.13;5029994;28;20037;-77
2022/10/26 10:41:19;;;;;;;8.07;2.28;;;;;;;17.40;100.00;96546.59;5028912;28;20029;-77
2022/10/26 10:43:52;;;;;;;6.72;1.92;;;;;;;17.40;100.00;96543.09;5045051;28;20037;-76
2022/10/26 10:46:25;;;;;;;7.43;2.03;;;;;;;18.71;100.00;96530.56;5028205;28;20091;-77
2022/10/26 10:48:59;;;;;;;8.00;2.67;;;;;;;19.69;100.00;96535.28;5029217;28;20380;-76
2022/10/26 10:51:25;;;;;;;7.85;2.20;;;;;;;19.73;100.00;96531.16;5029437;28;20038;-77
2022/10/26 10:53:55;;;;;;;11.98;2.55;;;;;;;20.14;100.00;96532.66;5029647;28;20036;-76
2022/10/26 10:56:28;;;;;;;7.57;2.40;;;;;;;20.31;100.00;96535.66;5024377;28;20044;-77
2022/10/26 10:59:25;;;;;;;8.55;2.25;;;;;;;20.41;100.00;96526.16;5033212;28;20087;-77
2022/10/26 11:02:19;;;;;;;4.40;1.90;;;;;;;19.43;100.00;96533.44;5029461;28;20028;-77
2022/10/26 11:04:48;;;;;;;5.68;2.00;;;;;;;19.35;100.00;96526.50;5026731;28;20054;-77
2022/10/26 11:07:15;;;;;;;6.43;2.25;;;;;;;20.63;100.00;96520.53;5027536;28;20025;-77
2022/10/26 11:09:44;;;;;;;10.43;2.50;;;;;;;21.22;100.00;96521.91;5036648;28;20086;-76
2022/10/26 11:12:52;;;;;;;8.60;1.83;;;;;;;21.28;100.00;96530.91;5020501;28;20021;-76
2022/10/26 11:15:22;;;;;;;7.75;2.00;;;;;;;21.49;100.00;96521.69;5020799;28;20100;-76
2022/10/26 11:18:05;;;;;;;8.20;2.20;;;;;;;21.57;100.00;96526.78;5031888;28;20083;-76
2022/10/26 11:20:35;;;;;;;6.75;2.53;;;;;;;21.12;100.00;96534.94;5026680;28;20029;-76
2022/10/26 11:23:24;;;;;;;7.82;2.20;;;;;;;21.38;100.00;96532.06;5035887;28;20029;-76
2022/10/26 11:26:17;;;;;;;6.07;2.10;;;;;;;21.63;100.00;96524.03;5013132;28;20710;-76
2022/10/26 11:28:48;;;;;;;8.00;2.42;;;;;;;21.50;100.00;96532.19;5027709;28;20584;-76
2022/10/26 11:31:33;;;;;;;5.40;2.33;;;;;;;21.44;100.00;96532.25;5027989;28;20029;-76
2022/10/26 11:34:18;;;;;;;7.35;2.55;;;;;;;21.31;100.00;96536.66;5028705;28;20200;-76
2022/10/26 11:36:48;;;;;;;7.32;2.30;;;;;;;21.38;100.00;96540.09;5028318;28;20029;-76
2022/10/26 11:39:23;;;;;;;8.52;3.55;;;;;;;21.50;100.00;96548.25;5018522;28;20551;-76
2022/10/26 11:42:20;;;;;;;8.15;2.92;;;;;;;21.31;100.00;96544.66;5029542;28;20152;-77
2022/10/26 11:45:18;;;;;;;7.90;2.25;;;;;;;21.59;100.00;96543.41;5027932;28;20453;-77